sensor_id;sensor_type;location;lat;lon;timestamp;pressure;altitude;pressure_sealevel;temperature;humidity
11672;BME280;5892;43.412;24.612;2024-01-30T03:03:14;102588.84;;;0.41;72.55
11672;BME280;5892;43.412;24.612;2024-01-30T03:05:40;102602.53;;;0.52;72.24
11672;BME280;5892;43.412;24.612;2024-01-30T03:08:06;102588.84;;;0.43;72.13
11672;BME280;5892;43.412;24.612;2024-01-30T03:18:21;102588.00;;;0.61;73.09
11672;BME280;5892;43.412;24.612;2024-01-30T03:21:16;102603.41;;;0.67;72.34
11672;BME280;5892;43.412;24.612;2024-01-30T03:23:52;102578.66;;;0.60;72.13
11672;BME280;5892;43.412;24.612;2024-01-30T05:45:13;102639.94;;;0.23;72.91
11672;BME280;5892;43.412;24.612;2024-01-30T05:54:23;102633.97;;;0.13;70.97
11672;BME280;5892;43.412;24.612;2024-01-30T05:56:48;102642.50;;;0.15;70.12
11672;BME280;5892;43.412;24.612;2024-01-30T06:03:08;102651.94;;;0.34;70.37
11672;BME280;5892;43.412;24.612;2024-01-30T06:05:33;102635.72;;;0.26;68.44
11672;BME280;5892;43.412;24.612;2024-01-30T06:07:59;102638.28;;;0.26;69.76
11672;BME280;5892;43.412;24.612;2024-01-30T06:10:27;102651.97;;;0.48;69.45
11672;BME280;5892;43.412;24.612;2024-01-30T06:12:55;102649.44;;;0.54;69.94
11672;BME280;5892;43.412;24.612;2024-01-30T06:18:51;102657.16;;;0.65;68.00
11672;BME280;5892;43.412;24.612;2024-01-30T06:21:23;102656.34;;;0.80;68.89
11672;BME280;5892;43.412;24.612;2024-01-30T06:23:50;102622.16;;;0.61;68.54
11672;BME280;5892;43.412;24.612;2024-01-30T06:30:05;102652.94;;;0.97;67.64
11672;BME280;5892;43.412;24.612;2024-01-30T06:35:54;102652.88;;;0.77;66.59
11672;BME280;5892;43.412;24.612;2024-01-30T06:38:20;102655.44;;;0.60;68.28
11672;BME280;5892;43.412;24.612;2024-01-30T06:40:50;102660.59;;;0.72;66.98
11672;BME280;5892;43.412;24.612;2024-01-30T06:43:16;102671.69;;;0.79;67.39
11672;BME280;5892;43.412;24.612;2024-01-30T06:45:43;102656.31;;;0.86;67.74
11672;BME280;5892;43.412;24.612;2024-01-30T06:48:09;102652.88;;;0.58;68.22
11672;BME280;5892;43.412;24.612;2024-01-30T06:50:35;102684.47;;;0.65;67.63
11672;BME280;5892;43.412;24.612;2024-01-30T06:53:02;102642.63;;;0.56;67.10
11672;BME280;5892;43.412;24.612;2024-01-30T06:59:00;102687.91;;;0.82;66.74
11672;BME280;5892;43.412;24.612;2024-01-30T07:04:50;102662.22;;;0.51;66.98
11672;BME280;5892;43.412;24.612;2024-01-30T07:07:17;102665.66;;;0.49;67.06
11672;BME280;5892;43.412;24.612;2024-01-30T07:13:07;102687.06;;;0.99;66.88
11672;BME280;5892;43.412;24.612;2024-01-30T07:15:35;102661.41;;;0.71;66.32
11672;BME280;5892;43.412;24.612;2024-01-30T07:18:05;102689.63;;;0.99;65.96
11672;BME280;5892;43.412;24.612;2024-01-30T07:20:35;102665.72;;;0.97;66.35
11672;BME280;5892;43.412;24.612;2024-01-30T07:23:01;102694.75;;;0.92;65.70
11672;BME280;5892;43.412;24.612;2024-01-30T07:25:33;102672.56;;;1.07;65.83
11672;BME280;5892;43.412;24.612;2024-01-30T07:28:02;102658.91;;;1.06;64.83
11672;BME280;5892;43.412;24.612;2024-01-30T07:30:31;102658.88;;;0.83;66.48
11672;BME280;5892;43.412;24.612;2024-01-30T07:32:57;102693.91;;;1.04;65.62
11672;BME280;5892;43.412;24.612;2024-01-30T07:35:24;102652.09;;;1.07;66.02
11672;BME280;5892;43.412;24.612;2024-01-30T07:37:55;102644.41;;;0.98;64.50
11672;BME280;5892;43.412;24.612;2024-01-30T07:40:25;102647.81;;;1.10;65.67
11672;BME280;5892;43.412;24.612;2024-01-30T07:42:54;102666.59;;;1.45;63.48
11672;BME280;5892;43.412;24.612;2024-01-30T07:45:55;102674.25;;;1.63;63.55
11672;BME280;5892;43.412;24.612;2024-01-30T07:51:44;102660.53;;;1.72;62.41
11672;BME280;5892;43.412;24.612;2024-01-30T07:57:55;102639.28;;;1.21;62.27
11672;BME280;5892;43.412;24.612;2024-01-30T08:04:33;102669.88;;;1.96;61.11
11672;BME280;5892;43.412;24.612;2024-01-30T08:17:32;102679.31;;;1.88;60.84
11672;BME280;5892;43.412;24.612;2024-01-30T08:28:32;102682.75;;;1.84;61.64
11672;BME280;5892;43.412;24.612;2024-01-30T08:34:17;102674.25;;;1.68;62.61
11672;BME280;5892;43.412;24.612;2024-01-30T08:36:44;102678.38;;;2.17;61.89
11672;BME280;5892;43.412;24.612;2024-01-30T08:46:39;102692.66;;;2.72;60.18
11672;BME280;5892;43.412;24.612;2024-01-30T08:59:10;102676.38;;;2.77;60.04
11672;BME280;5892;43.412;24.612;2024-01-30T09:11:46;102679.59;;;3.04;59.43
11672;BME280;5892;43.412;24.612;2024-01-30T09:34:43;102652.97;;;3.11;58.12
11672;BME280;5892;43.412;24.612;2024-01-30T09:48:18;102637.22;;;3.48;55.91
11672;BME280;5892;43.412;24.612;2024-01-30T10:15:50;102614.72;;;3.67;54.64
11672;BME280;5892;43.412;24.612;2024-01-30T10:18:22;102616.16;;;3.93;52.95
11672;BME280;5892;43.412;24.612;2024-01-30T12:46:34;102480.13;;;3.67;48.89
11672;BME280;5892;43.412;24.612;2024-01-30T12:49:00;102481.59;;;3.85;47.37
11672;BME280;5892;43.412;24.612;2024-01-30T12:51:29;102484.53;;;3.57;47.59
11672;BME280;5892;43.412;24.612;2024-01-30T13:22:28;102458.25;;;3.97;50.49
11672;BME280;5892;43.412;24.612;2024-01-30T14:04:32;102450.34;;;3.50;51.28
11672;BME280;5892;43.412;24.612;2024-01-30T14:47:21;102429.03;;;3.40;53.41
11672;BME280;5892;43.412;24.612;2024-01-30T14:49:46;102459.78;;;3.48;54.73
11672;BME280;5892;43.412;24.612;2024-01-30T15:13:37;102433.84;;;2.95;56.56
11672;BME280;5892;43.412;24.612;2024-01-30T15:16:04;102465.28;;;3.19;55.38
11672;BME280;5892;43.412;24.612;2024-01-30T15:18:35;102461.19;;;3.02;56.52
11672;BME280;5892;43.412;24.612;2024-01-30T15:21:01;102439.13;;;2.81;57.15
11672;BME280;5892;43.412;24.612;2024-01-30T15:23:27;102442.47;;;2.93;56.66
11672;BME280;5892;43.412;24.612;2024-01-30T15:25:57;102451.94;;;2.86;57.87
11672;BME280;5892;43.412;24.612;2024-01-30T15:41:19;102458.78;;;2.86;57.25
11672;BME280;5892;43.412;24.612;2024-01-30T15:49:17;102453.72;;;2.79;57.99
11672;BME280;5892;43.412;24.612;2024-01-30T16:02:04;102479.50;;;2.72;58.04
11672;BME280;5892;43.412;24.612;2024-01-30T16:04:30;102464.94;;;2.71;57.93
11672;BME280;5892;43.412;24.612;2024-01-30T16:06:57;102484.66;;;2.69;58.91
11672;BME280;5892;43.412;24.612;2024-01-30T16:14:33;102462.53;;;2.51;58.53
11672;BME280;5892;43.412;24.612;2024-01-30T16:17:01;102480.50;;;2.54;58.91
11672;BME280;5892;43.412;24.612;2024-01-30T16:19:27;102447.28;;;2.35;59.33
11672;BME280;5892;43.412;24.612;2024-01-30T16:21:54;102460.09;;;2.37;59.06
11672;BME280;5892;43.412;24.612;2024-01-30T16:42:38;102476.28;;;2.47;58.51
11672;BME280;5892;43.412;24.612;2024-01-30T16:45:04;102469.41;;;2.45;58.24
11672;BME280;5892;43.412;24.612;2024-01-30T16:55:21;102473.03;;;2.23;59.41
11672;BME280;5892;43.412;24.612;2024-01-30T18:14:33;102425.91;;;0.57;64.21
11672;BME280;5892;43.412;24.612;2024-01-30T18:17:04;102440.41;;;0.56;64.94
11672;BME280;5892;43.412;24.612;2024-01-30T18:29:50;102427.66;;;0.21;65.29
11672;BME280;5892;43.412;24.612;2024-01-30T18:53:50;102451.50;;;-0.05;66.62
11672;BME280;5892;43.412;24.612;2024-01-30T18:56:20;102446.34;;;-0.20;66.46
11672;BME280;5892;43.412;24.612;2024-01-30T18:58:46;102426.69;;;-0.44;67.82
11672;BME280;5892;43.412;24.612;2024-01-30T19:01:12;102420.72;;;-0.54;66.83
11672;BME280;5892;43.412;24.612;2024-01-30T19:03:38;102463.38;;;-0.22;67.32
11672;BME280;5892;43.412;24.612;2024-01-30T19:06:06;102438.53;;;-0.62;67.21
11672;BME280;5892;43.412;24.612;2024-01-30T19:08:32;102428.25;;;-0.80;68.00
11672;BME280;5892;43.412;24.612;2024-01-30T19:52:34;102402.63;;;-1.00;68.17
11672;BME280;5892;43.412;24.612;2024-01-30T19:55:12;102417.13;;;-0.93;67.47
11672;BME280;5892;43.412;24.612;2024-01-30T19:57:38;102400.88;;;-1.09;68.77
11672;BME280;5892;43.412;24.612;2024-01-30T20:00:07;102423.91;;;-0.97;68.21
11672;BME280;5892;43.412;24.612;2024-01-30T20:02:36;102406.88;;;-1.05;67.76
11672;BME280;5892;43.412;24.612;2024-01-30T20:05:01;102400.03;;;-1.12;67.95
11672;BME280;5892;43.412;24.612;2024-01-30T20:07:27;102395.69;;;-1.24;68.15
11672;BME280;5892;43.412;24.612;2024-01-30T20:09:58;102399.88;;;-1.37;68.69
11672;BME280;5892;43.412;24.612;2024-01-30T20:12:24;102396.50;;;-1.31;68.85
11672;BME280;5892;43.412;24.612;2024-01-30T20:14:50;102400.88;;;-1.17;67.24
11672;BME280;5892;43.412;24.612;2024-01-30T20:17:16;102401.66;;;-1.21;68.50
11672;BME280;5892;43.412;24.612;2024-01-30T20:19:44;102432.28;;;-1.25;69.16
11672;BME280;5892;43.412;24.612;2024-01-30T20:22:10;102403.22;;;-1.46;69.71
11672;BME280;5892;43.412;24.612;2024-01-30T20:24:36;102418.47;;;-1.54;69.28
11672;BME280;5892;43.412;24.612;2024-01-30T20:27:02;102422.78;;;-1.48;69.19
11672;BME280;5892;43.412;24.612;2024-01-30T20:29:28;102394.72;;;-1.49;68.60
11672;BME280;5892;43.412;24.612;2024-01-30T20:31:55;102397.28;;;-1.48;68.02
11672;BME280;5892;43.412;24.612;2024-01-30T20:34:21;102416.06;;;-1.34;68.20
11672;BME280;5892;43.412;24.612;2024-01-30T20:36:48;102391.28;;;-1.53;69.16
11672;BME280;5892;43.412;24.612;2024-01-30T20:39:14;102387.00;;;-1.56;68.50
11672;BME280;5892;43.412;24.612;2024-01-30T20:41:43;102410.03;;;-1.45;69.56
11672;BME280;5892;43.412;24.612;2024-01-30T20:44:10;102408.25;;;-1.54;68.85
11672;BME280;5892;43.412;24.612;2024-01-30T20:46:36;102399.66;;;-1.69;70.32
11672;BME280;5892;43.412;24.612;2024-01-30T20:49:01;102403.06;;;-1.66;69.34
11672;BME280;5892;43.412;24.612;2024-01-30T20:51:27;102395.47;;;-1.61;69.90
11672;BME280;5892;43.412;24.612;2024-01-30T20:53:55;102409.13;;;-1.55;69.17
11672;BME280;5892;43.412;24.612;2024-01-30T20:56:21;102393.78;;;-1.59;68.93
11672;BME280;5892;43.412;24.612;2024-01-30T20:58:46;102392.16;;;-1.51;68.70
11672;BME280;5892;43.412;24.612;2024-01-30T21:01:12;102396.28;;;-1.67;69.43
11672;BME280;5892;43.412;24.612;2024-01-30T21:03:37;102383.44;;;-1.78;69.04
11672;BME280;5892;43.412;24.612;2024-01-30T21:06:07;102395.41;;;-1.71;69.59
11672;BME280;5892;43.412;24.612;2024-01-30T21:08:34;102386.81;;;-1.80;69.89
11672;BME280;5892;43.412;24.612;2024-01-30T21:11:01;102392.94;;;-1.60;70.41
11672;BME280;5892;43.412;24.612;2024-01-30T21:13:27;102385.28;;;-1.58;69.79
11672;BME280;5892;43.412;24.612;2024-01-30T21:15:53;102383.53;;;-1.62;69.66
11672;BME280;5892;43.412;24.612;2024-01-30T21:18:18;102386.88;;;-1.76;69.90
11672;BME280;5892;43.412;24.612;2024-01-30T21:20:44;102380.84;;;-1.84;69.79
11672;BME280;5892;43.412;24.612;2024-01-30T21:23:09;102383.50;;;-1.72;69.53
11672;BME280;5892;43.412;24.612;2024-01-30T21:25:35;102375.75;;;-1.82;70.57
11672;BME280;5892;43.412;24.612;2024-01-30T21:28:04;102378.22;;;-1.90;70.00
11672;BME280;5892;43.412;24.612;2024-01-30T21:30:40;102379.03;;;-1.96;71.15
11672;BME280;5892;43.412;24.612;2024-01-30T21:33:06;102377.38;;;-1.92;70.15
11672;BME280;5892;43.412;24.612;2024-01-30T21:35:36;102380.66;;;-2.09;71.19
11672;BME280;5892;43.412;24.612;2024-01-30T21:38:06;102385.06;;;-1.89;71.19
11672;BME280;5892;43.412;24.612;2024-01-30T21:40:32;102375.63;;;-1.98;70.96
11672;BME280;5892;43.412;24.612;2024-01-30T21:42:57;102375.59;;;-2.02;70.36
11672;BME280;5892;43.412;24.612;2024-01-30T21:45:25;102379.88;;;-1.95;70.42
11672;BME280;5892;43.412;24.612;2024-01-30T21:47:54;102379.03;;;-1.96;70.61
11672;BME280;5892;43.412;24.612;2024-01-30T21:50:19;102372.22;;;-2.01;70.15
11672;BME280;5892;43.412;24.612;2024-01-30T21:52:45;102378.25;;;-1.87;69.45
11672;BME280;5892;43.412;24.612;2024-01-30T21:55:11;102373.94;;;-1.96;70.19
11672;BME280;5892;43.412;24.612;2024-01-30T21:57:37;102371.28;;;-2.10;70.43
11672;BME280;5892;43.412;24.612;2024-01-30T22:00:04;102379.72;;;-2.17;70.56
11672;BME280;5892;43.412;24.612;2024-01-30T22:51:40;102358.94;;;-2.58;73.71
11672;BME280;5892;43.412;24.612;2024-01-30T22:54:08;102337.56;;;-2.73;73.21
11672;BME280;5892;43.412;24.612;2024-01-30T23:03:56;102351.25;;;-2.61;73.02
11672;BME280;5892;43.412;24.612;2024-01-30T23:06:22;102325.56;;;-2.83;73.54
11672;BME280;5892;43.412;24.612;2024-01-30T23:09:00;102335.84;;;-2.74;73.41
11672;BME280;5892;43.412;24.612;2024-01-30T23:11:38;102315.22;;;-2.98;73.51
11672;BME280;5892;43.412;24.612;2024-01-30T23:14:05;102321.16;;;-2.98;74.21
11672;BME280;5892;43.412;24.612;2024-01-30T23:16:30;102311.06;;;-2.92;73.49
11672;BME280;5892;43.412;24.612;2024-01-30T23:22:19;102324.81;;;-2.74;73.76
11672;BME280;5892;43.412;24.612;2024-01-30T23:28:08;102332.59;;;-2.60;73.57
11672;BME280;5892;43.412;24.612;2024-01-30T23:30:35;102304.47;;;-2.73;73.20
11672;BME280;5892;43.412;24.612;2024-01-30T23:33:12;102308.50;;;-2.92;74.54
11672;BME280;5892;43.412;24.612;2024-01-30T23:35:46;102305.03;;;-2.98;74.41
11672;BME280;5892;43.412;24.612;2024-01-30T23:38:13;102287.94;;;-3.09;74.04
11672;BME280;5892;43.412;24.612;2024-01-30T23:40:39;102307.59;;;-2.97;74.81
11672;BME280;5892;43.412;24.612;2024-01-30T23:43:08;102318.75;;;-2.84;74.41
11672;BME280;5892;43.412;24.612;2024-01-30T23:48:55;102317.13;;;-2.79;74.54
11672;BME280;5892;43.412;24.612;2024-01-30T23:51:20;102297.38;;;-3.00;74.48
11672;BME280;5892;43.412;24.612;2024-01-30T23:57:45;102317.81;;;-2.94;74.46
